Terminal Aerodrome Forecast
Issued by NWS

Home | Current Version | Previous Version | Text Only | Print | Product List | Glossary On
Versions: 1 2 3 4 5 6 7 8 9 10 11 12 13 14 15
000
FTUS43 KLSX 201100 RRA
TAFUIN
TAF
KUIN 201145Z 2012/2112 08008KT 6SM -RA OVC050
     FM201600 05012KT 5SM -RA BR BKN015 OVC040
     FM202000 02006KT 6SM BR BKN025 OVC050
     FM210200 02004KT P6SM BKN050=

USA.gov is the U.S. government's official web portal to all federal, state and local government web resources and services.